createdAt,value
2022-12-12T00:02:12.631Z,99175.45
2022-12-12T00:04:41.139Z,99173.73
2022-12-12T00:07:09.474Z,99168.31
2022-12-12T00:09:37.977Z,99169.87
2022-12-12T00:12:06.798Z,99166.65
2022-12-12T00:14:35.265Z,99167.16
2022-12-12T00:17:03.686Z,99169.69
2022-12-12T00:19:32.115Z,99162.39
2022-12-12T00:22:00.509Z,99164.05
2022-12-12T00:24:29.003Z,99164.91
2022-12-12T00:26:57.324Z,99165.58
2022-12-12T00:29:26.072Z,99165.89
2022-12-12T00:31:55.441Z,99167.05
2022-12-12T00:34:23.754Z,99171.61
2022-12-12T00:36:52.138Z,99167.48
2022-12-12T00:39:20.864Z,99167.09
2022-12-12T00:41:52.708Z,99161.95
2022-12-12T00:44:21.047Z,99166.50
2022-12-12T00:46:49.500Z,99164.77
2022-12-12T00:49:17.923Z,99162.88
2022-12-12T00:51:46.603Z,99164.88
2022-12-12T00:54:14.919Z,99169.59
2022-12-12T00:56:49.556Z,99176.37
2022-12-12T00:59:18.026Z,99173.42
2022-12-12T01:01:47.594Z,99172.75
2022-12-12T01:04:16.386Z,99173.41
2022-12-12T01:06:44.830Z,99174.93
2022-12-12T01:09:13.503Z,99179.85
2022-12-12T01:11:41.899Z,99176.42
2022-12-12T01:14:10.358Z,99178.27
2022-12-12T01:16:38.866Z,99173.85
2022-12-12T01:19:07.329Z,99175.16
2022-12-12T01:21:37.086Z,99173.11
2022-12-12T01:24:05.781Z,99170.91
2022-12-12T01:26:34.500Z,99165.98
2022-12-12T01:29:02.887Z,99164.95
2022-12-12T01:31:31.357Z,99165.78
2022-12-12T01:33:59.793Z,99163.02
2022-12-12T01:36:28.331Z,99159.60
2022-12-12T01:38:57.485Z,99160.77
2022-12-12T01:41:25.862Z,99160.25
2022-12-12T01:43:54.534Z,99162.30
2022-12-12T01:46:22.855Z,99161.95
2022-12-12T01:48:56.646Z,99157.39
2022-12-12T01:51:27.829Z,99153.96
2022-12-12T01:54:07.546Z,99151.05
2022-12-12T01:56:39.140Z,99146.77
2022-12-12T01:59:10.399Z,99146.58
2022-12-12T02:01:40.484Z,99145.56
2022-12-12T02:04:11.008Z,99147.41
2022-12-12T02:06:41.052Z,99150.65
2022-12-12T02:09:13.545Z,99149.95
2022-12-12T02:11:48.647Z,99147.73
2022-12-12T02:14:27.795Z,99146.36
2022-12-12T02:17:17.437Z,99147.90
2022-12-12T02:20:13.554Z,99146.39
2022-12-12T02:23:03.146Z,99141.96
2022-12-12T02:26:02.644Z,99143.11
2022-12-12T02:28:46.067Z,99145.64
2022-12-12T02:31:35.106Z,99140.38
2022-12-12T02:34:16.128Z,99142.42
2022-12-12T02:37:03.448Z,99144.45
2022-12-12T02:39:48.014Z,99145.66
2022-12-12T02:42:47.428Z,99139.71
2022-12-12T02:45:43.233Z,99140.57
2022-12-12T02:48:27.177Z,99143.12
2022-12-12T02:50:59.400Z,99142.80
2022-12-12T02:53:28.337Z,99145.51
2022-12-12T02:56:09.386Z,99139.38
2022-12-12T02:58:38.920Z,99143.30
2022-12-12T03:01:20.953Z,99148.56
2022-12-12T03:04:16.923Z,99145.66
2022-12-12T03:07:14.619Z,99140.38
2022-12-12T03:10:47.668Z,99136.80
2022-12-12T03:13:21.883Z,99137.96
2022-12-12T03:16:11.580Z,99142.54
2022-12-12T03:19:09.010Z,99147.95
2022-12-12T03:21:53.358Z,99147.94
2022-12-12T03:24:36.744Z,99143.00
2022-12-12T03:27:22.584Z,99142.81
2022-12-12T03:30:12.718Z,99146.20
2022-12-12T03:33:20.084Z,99143.45
2022-12-12T03:36:03.945Z,99147.84
2022-12-12T03:38:38.612Z,99142.36
2022-12-12T03:41:14.976Z,99144.91
2022-12-12T03:44:05.101Z,99143.21
2022-12-12T03:46:40.852Z,99143.04
2022-12-12T03:49:28.237Z,99147.46
2022-12-12T03:52:06.489Z,99147.80
2022-12-12T03:54:42.299Z,99149.50
2022-12-12T03:57:39.249Z,99145.73
2022-12-12T04:00:15.441Z,99144.35
2022-12-12T04:03:18.947Z,99138.92
2022-12-12T04:06:37.693Z,99136.69
2022-12-12T04:09:31.700Z,99137.34
2022-12-12T04:12:33.294Z,99132.58
2022-12-12T04:15:30.604Z,99131.05
2022-12-12T04:18:17.585Z,99134.31
2022-12-12T04:21:13.087Z,99134.33
2022-12-12T04:24:03.311Z,99136.71
2022-12-12T04:26:42.789Z,99134.15
2022-12-12T04:29:16.832Z,99128.33
2022-12-12T04:32:13.410Z,99126.10
2022-12-12T04:34:41.727Z,99127.45
2022-12-12T04:37:14.178Z,99131.04
2022-12-12T04:39:44.884Z,99127.80
2022-12-12T04:42:18.361Z,99128.12
2022-12-12T04:44:47.755Z,99132.17
2022-12-12T04:47:17.667Z,99131.16
2022-12-12T04:49:48.438Z,99132.02
2022-12-12T04:52:19.656Z,99133.05
2022-12-12T04:54:55.074Z,99126.41
2022-12-12T04:57:50.564Z,99127.59
2022-12-12T05:00:20.451Z,99125.36
2022-12-12T05:03:18.125Z,99130.10
2022-12-12T05:05:58.159Z,99137.23
2022-12-12T05:08:48.342Z,99133.46
2022-12-12T05:11:22.348Z,99132.27
2022-12-12T05:13:51.074Z,99134.31
2022-12-12T05:16:25.569Z,99132.27
2022-12-12T05:18:53.952Z,99131.58
2022-12-12T05:21:22.583Z,99129.86
2022-12-12T05:23:51.030Z,99127.27
2022-12-12T05:26:26.361Z,99129.30
2022-12-12T05:28:55.133Z,99123.50
2022-12-12T05:31:24.135Z,99123.99
2022-12-12T05:33:52.874Z,99122.77
2022-12-12T05:36:21.894Z,99120.18
2022-12-12T05:38:50.459Z,99116.06
2022-12-12T05:41:18.940Z,99117.59
2022-12-12T05:43:47.320Z,99122.88
2022-12-12T05:46:15.836Z,99120.50
2022-12-12T05:48:44.882Z,99120.15
2022-12-12T05:51:13.313Z,99123.22
2022-12-12T05:53:43.199Z,99123.22
2022-12-12T05:56:13.360Z,99125.60
2022-12-12T05:58:42.110Z,99127.44
2022-12-12T06:01:11.072Z,99129.27
2022-12-12T06:03:39.466Z,99132.84
2022-12-12T06:06:07.921Z,99128.23
2022-12-12T06:08:36.374Z,99129.58
2022-12-12T06:11:06.972Z,99133.15
2022-12-12T06:13:35.457Z,99131.94
2022-12-12T06:16:16.692Z,99130.89
2022-12-12T06:18:46.646Z,99130.54
2022-12-12T06:21:15.055Z,99136.98
2022-12-12T06:23:43.348Z,99135.91
2022-12-12T06:26:15.612Z,99135.52
2022-12-12T06:28:44.365Z,99137.02
2022-12-12T06:31:13.355Z,99140.23
2022-12-12T06:33:43.418Z,99145.81
2022-12-12T06:36:16.925Z,99145.77
2022-12-12T06:38:45.352Z,99147.13
2022-12-12T06:41:15.377Z,99153.23
2022-12-12T06:43:44.460Z,99156.27
2022-12-12T06:46:19.679Z,99155.90
2022-12-12T06:48:48.712Z,99161.34
2022-12-12T06:51:21.711Z,99160.84
2022-12-12T06:53:50.199Z,99164.06
2022-12-12T06:56:21.101Z,99164.72
2022-12-12T06:58:49.749Z,99164.36
2022-12-12T07:01:20.725Z,99163.79
2022-12-12T07:03:50.743Z,99165.14
2022-12-12T07:06:22.221Z,99165.66
2022-12-12T07:08:52.257Z,99167.35
2022-12-12T07:11:24.141Z,99172.43
2022-12-12T07:13:53.689Z,99172.60
2022-12-12T07:16:22.501Z,99175.97
2022-12-12T07:18:50.862Z,99177.48
2022-12-12T07:21:20.576Z,99176.79
2022-12-12T07:23:49.143Z,99170.27
2022-12-12T07:26:23.177Z,99172.95
2022-12-12T07:28:52.228Z,99173.60
2022-12-12T07:31:24.926Z,99176.15
2022-12-12T07:33:55.161Z,99178.69
2022-12-12T07:36:23.699Z,99175.29
2022-12-12T07:38:52.431Z,99176.64
2022-12-12T07:41:21.250Z,99177.45
2022-12-12T07:43:51.283Z,99178.60
2022-12-12T07:46:25.653Z,99174.61
2022-12-12T07:48:54.702Z,99177.96
2022-12-12T07:51:24.655Z,99183.06
2022-12-12T07:53:53.220Z,99178.14
2022-12-12T07:56:21.822Z,99184.77
2022-12-12T07:58:50.471Z,99184.89
2022-12-12T08:01:23.114Z,99183.20
2022-12-12T08:03:53.555Z,99184.52
2022-12-12T08:06:23.781Z,99186.08
2022-12-12T08:08:53.573Z,99184.20
2022-12-12T08:11:24.664Z,99186.42
2022-12-12T08:13:53.663Z,99186.42
2022-12-12T08:16:28.801Z,99185.04
2022-12-12T08:18:59.111Z,99183.81
2022-12-12T08:21:28.866Z,99183.32
2022-12-12T08:23:58.815Z,99187.40
2022-12-12T08:26:28.708Z,99179.38
2022-12-12T08:28:57.738Z,99180.73
2022-12-12T08:31:27.366Z,99181.38
2022-12-12T08:33:56.573Z,99182.23
2022-12-12T08:36:30.379Z,99184.23
2022-12-12T08:39:04.320Z,99185.04
2022-12-12T08:41:32.732Z,99186.23
2022-12-12T08:44:01.170Z,99186.69
2022-12-12T08:46:29.610Z,99183.94
2022-12-12T08:48:57.964Z,99187.10
2022-12-12T08:51:26.467Z,99190.13
2022-12-12T08:53:55.529Z,99194.02
2022-12-12T08:56:33.681Z,99193.98
2022-12-12T08:59:02.917Z,99193.30
2022-12-12T09:01:31.428Z,99197.52
2022-12-12T09:04:00.169Z,99198.45
2022-12-12T09:06:29.034Z,99196.36
2022-12-12T09:08:57.962Z,99194.91
2022-12-12T09:11:26.663Z,99195.53
2022-12-12T09:13:55.037Z,99194.87
2022-12-12T09:16:26.679Z,99195.45
2022-12-12T09:18:55.174Z,99196.17
2022-12-12T09:21:24.190Z,99194.27
2022-12-12T09:23:52.797Z,99191.30
2022-12-12T09:26:21.342Z,99191.55
2022-12-12T09:28:50.256Z,99191.44
2022-12-12T09:31:19.180Z,99187.05
2022-12-12T09:33:48.048Z,99185.41
2022-12-12T09:36:16.908Z,99187.53
2022-12-12T09:38:45.337Z,99190.35
2022-12-12T09:41:19.834Z,99192.86
2022-12-12T09:44:08.182Z,99193.25
2022-12-12T09:47:05.896Z,99189.02
2022-12-12T09:49:49.538Z,99191.27
2022-12-12T09:52:38.572Z,99187.73
2022-12-12T09:55:43.940Z,99193.74
2022-12-12T09:58:30.357Z,99195.44
2022-12-12T10:01:34.046Z,99194.05
2022-12-12T10:04:20.890Z,99191.96
2022-12-12T10:07:01.655Z,99192.36
2022-12-12T10:09:42.202Z,99193.27
2022-12-12T10:12:15.479Z,99199.00
2022-12-12T10:14:48.267Z,99199.05
2022-12-12T10:17:28.561Z,99197.44
2022-12-12T10:20:21.281Z,99197.83
2022-12-12T10:23:28.585Z,99199.86
2022-12-12T10:26:18.494Z,99197.95
2022-12-12T10:28:53.417Z,99191.33
2022-12-12T10:32:05.135Z,99192.04
2022-12-12T10:34:55.318Z,99185.37
2022-12-12T10:37:29.516Z,99188.48
2022-12-12T10:40:19.178Z,99187.83
2022-12-12T10:43:24.065Z,99189.38
2022-12-12T10:45:58.089Z,99192.44
2022-12-12T10:48:29.765Z,99189.33
2022-12-12T10:51:04.856Z,99187.96
2022-12-12T10:53:34.109Z,99185.86
2022-12-12T10:56:12.639Z,99182.59
2022-12-12T10:58:43.787Z,99187.97
2022-12-12T11:01:38.451Z,99184.09
2022-12-12T11:04:14.433Z,99184.84
2022-12-12T11:06:51.484Z,99177.33
2022-12-12T11:09:26.285Z,99179.96
2022-12-12T11:12:01.179Z,99176.99
2022-12-12T11:14:38.020Z,99182.23
2022-12-12T11:17:30.226Z,99184.23
2022-12-12T11:20:00.672Z,99189.96
2022-12-12T11:22:33.551Z,99192.45
2022-12-12T11:25:02.047Z,99191.45
2022-12-12T11:27:41.147Z,99192.20
2022-12-12T11:30:40.075Z,99188.89
2022-12-12T11:33:17.273Z,99192.42
2022-12-12T11:35:47.886Z,99189.60
2022-12-12T11:38:22.900Z,99191.14
2022-12-12T11:41:07.712Z,99187.09
2022-12-12T11:43:39.161Z,99186.77
2022-12-12T11:46:31.660Z,99182.82
2022-12-12T11:49:04.230Z,99180.89
2022-12-12T11:51:44.789Z,99185.58
2022-12-12T11:54:16.990Z,99189.81
2022-12-12T11:57:23.096Z,99174.95
2022-12-12T12:00:12.165Z,99179.27
2022-12-12T12:03:07.833Z,99179.36
2022-12-12T12:06:14.466Z,99176.73
2022-12-12T12:08:51.873Z,99178.08
2022-12-12T12:11:38.650Z,99179.70
2022-12-12T12:14:34.611Z,99182.14
2022-12-12T12:17:22.981Z,99177.42
2022-12-12T12:20:12.536Z,99174.04
2022-12-12T12:23:02.372Z,99173.29
2022-12-12T12:26:22.584Z,99177.71
2022-12-12T12:29:10.185Z,99175.42
2022-12-12T12:31:52.801Z,99172.42
2022-12-12T12:34:30.583Z,99171.92
2022-12-12T12:37:24.887Z,99175.27
2022-12-12T12:40:12.407Z,99171.20
2022-12-12T12:42:56.353Z,99172.12
2022-12-12T12:45:45.802Z,99172.31
2022-12-12T12:48:30.429Z,99173.54
2022-12-12T12:51:13.864Z,99168.95
2022-12-12T12:54:31.842Z,99169.10
2022-12-12T12:57:16.601Z,99170.98
2022-12-12T12:59:49.100Z,99177.42
2022-12-12T13:02:29.116Z,99175.52
2022-12-12T13:05:07.828Z,99177.59
2022-12-12T13:08:23.237Z,99179.75
2022-12-12T13:10:55.770Z,99176.86
2022-12-12T13:13:29.308Z,99178.43
2022-12-12T13:16:06.015Z,99183.44
2022-12-12T13:18:48.461Z,99185.73
2022-12-12T13:21:33.703Z,99191.84
2022-12-12T13:24:27.014Z,99198.23
2022-12-12T13:27:12.963Z,99204.79
2022-12-12T13:29:48.962Z,99207.78
2022-12-12T13:32:35.993Z,99205.77
2022-12-12T13:35:12.005Z,99208.25
2022-12-12T13:37:53.526Z,99212.08
2022-12-12T13:40:27.369Z,99212.96
2022-12-12T13:42:57.576Z,99222.98
2022-12-12T13:45:39.256Z,99220.83
2022-12-12T13:48:10.701Z,99220.69
2022-12-12T13:50:39.111Z,99220.54
2022-12-12T13:53:07.487Z,99222.96
2022-12-12T13:55:36.857Z,99224.52
2022-12-12T13:58:17.758Z,99229.81
2022-12-12T14:00:46.993Z,99238.56
2022-12-12T14:03:31.064Z,99237.74
2022-12-12T14:06:11.026Z,99240.52
2022-12-12T14:08:48.964Z,99242.08
2022-12-12T14:11:35.194Z,99241.08
2022-12-12T14:14:16.334Z,99244.84
2022-12-12T14:16:53.156Z,99242.68
2022-12-12T14:19:30.492Z,99245.31
2022-12-12T14:21:59.172Z,99248.45
2022-12-12T14:24:33.285Z,99249.19
2022-12-12T14:27:06.555Z,99250.77
2022-12-12T14:29:40.066Z,99255.39
2022-12-12T14:32:11.614Z,99260.71
2022-12-12T14:34:59.027Z,99262.29
2022-12-12T14:37:52.012Z,99264.34
2022-12-12T14:40:27.890Z,99260.44
2022-12-12T14:43:18.966Z,99262.84
2022-12-12T14:45:49.991Z,99268.27
2022-12-12T14:48:26.440Z,99265.91
2022-12-12T14:50:57.818Z,99268.31
2022-12-12T14:53:32.552Z,99265.30
2022-12-12T14:56:07.619Z,99259.73
2022-12-12T14:58:41.292Z,99268.63
2022-12-12T15:01:10.394Z,99266.08
2022-12-12T15:03:51.431Z,99269.16
2022-12-12T15:06:39.921Z,99270.55
2022-12-12T15:09:30.021Z,99273.98
2022-12-12T15:12:10.401Z,99276.42
2022-12-12T15:14:40.914Z,99278.82
2022-12-12T15:17:28.602Z,99281.04
2022-12-12T15:20:20.625Z,99281.55
2022-12-12T15:22:55.228Z,99288.60
2022-12-12T15:25:30.319Z,99289.64
2022-12-12T15:27:59.463Z,99291.89
2022-12-12T15:30:30.795Z,99294.95
2022-12-12T15:33:03.709Z,99294.92
2022-12-12T15:35:32.965Z,99293.73
2022-12-12T15:38:13.278Z,99296.47
2022-12-12T15:40:45.951Z,99296.17
2022-12-12T15:43:17.624Z,99301.33
2022-12-12T15:45:53.512Z,99301.65
2022-12-12T15:48:23.440Z,99301.48
2022-12-12T15:50:52.322Z,99304.38
2022-12-12T15:53:32.665Z,99300.30
2022-12-12T15:56:14.813Z,99307.51
2022-12-12T15:58:45.980Z,99312.50
2022-12-12T16:01:20.966Z,99307.73
2022-12-12T16:04:05.651Z,99311.64
2022-12-12T16:06:43.052Z,99314.07
2022-12-12T16:09:11.472Z,99311.89
2022-12-12T16:11:45.873Z,99320.45
2022-12-12T16:14:38.644Z,99326.10
2022-12-12T16:17:20.085Z,99323.06
2022-12-12T16:20:04.599Z,99323.42
2022-12-12T16:22:45.966Z,99323.45
2022-12-12T16:25:26.811Z,99332.34
2022-12-12T16:28:25.910Z,99329.76
2022-12-12T16:31:06.788Z,99335.40
2022-12-12T16:33:38.068Z,99339.69
2022-12-12T16:36:09.240Z,99345.66
2022-12-12T16:38:40.435Z,99341.80
2022-12-12T16:41:14.245Z,99345.05
2022-12-12T16:43:42.900Z,99346.09
2022-12-12T16:46:29.257Z,99340.48
2022-12-12T16:49:04.695Z,99341.54
2022-12-12T16:51:35.550Z,99344.63
2022-12-12T16:54:04.321Z,99343.14
2022-12-12T16:56:32.944Z,99344.34
2022-12-12T16:59:01.405Z,99343.68
2022-12-12T17:01:33.320Z,99346.59
2022-12-12T17:04:16.555Z,99347.64
2022-12-12T17:06:45.108Z,99346.45
2022-12-12T17:09:13.696Z,99343.57
2022-12-12T17:11:42.394Z,99345.28
2022-12-12T17:14:26.575Z,99350.58
2022-12-12T17:16:57.094Z,99359.62
2022-12-12T17:19:29.058Z,99362.20
2022-12-12T17:21:58.841Z,99369.55
2022-12-12T17:24:28.030Z,99370.77
2022-12-12T17:26:59.448Z,99372.20
2022-12-12T17:29:28.903Z,99374.23
2022-12-12T17:31:57.640Z,99373.92
2022-12-12T17:34:26.158Z,99375.52
2022-12-12T17:36:55.583Z,99378.63
2022-12-12T17:39:24.276Z,99379.68
2022-12-12T17:41:53.454Z,99384.31
2022-12-12T17:44:24.300Z,99389.11
2022-12-12T17:46:53.604Z,99390.82
2022-12-12T17:49:22.677Z,99391.85
2022-12-12T17:51:51.230Z,99390.51
2022-12-12T17:54:20.220Z,99395.48
2022-12-12T17:56:50.149Z,99393.13
2022-12-12T17:59:18.855Z,99389.39
2022-12-12T18:01:53.310Z,99388.71
2022-12-12T18:04:27.688Z,99395.57
2022-12-12T18:06:57.606Z,99394.05
2022-12-12T18:09:26.351Z,99402.07
2022-12-12T18:11:55.118Z,99404.48
2022-12-12T18:14:24.651Z,99413.17
2022-12-12T18:16:53.951Z,99416.58
2022-12-12T18:19:25.515Z,99420.14
2022-12-12T18:22:02.857Z,99420.14
2022-12-12T18:24:34.596Z,99419.14
2022-12-12T18:27:05.329Z,99424.95
2022-12-12T18:29:34.975Z,99424.97
2022-12-12T18:32:05.808Z,99426.33
2022-12-12T18:34:34.828Z,99427.20
2022-12-12T18:37:04.676Z,99427.41
2022-12-12T18:39:34.530Z,99424.56
2022-12-12T18:42:03.383Z,99426.81
2022-12-12T18:44:35.227Z,99432.95
2022-12-12T18:47:04.432Z,99433.31
2022-12-12T18:49:34.202Z,99434.68
2022-12-12T18:52:05.262Z,99440.33
2022-12-12T18:54:36.755Z,99440.02
2022-12-12T18:57:06.970Z,99439.52
2022-12-12T18:59:36.845Z,99444.63
2022-12-12T19:02:14.729Z,99441.91
2022-12-12T19:04:46.099Z,99442.58
2022-12-12T19:07:19.161Z,99445.83
2022-12-12T19:09:51.204Z,99451.61
2022-12-12T19:12:22.821Z,99457.08
2022-12-12T19:15:15.760Z,99458.77
2022-12-12T19:17:45.083Z,99462.35
2022-12-12T19:20:14.761Z,99463.39
2022-12-12T19:22:47.100Z,99462.70
2022-12-12T19:25:19.431Z,99460.14
2022-12-12T19:27:49.648Z,99462.17
2022-12-12T19:30:19.570Z,99471.38
2022-12-12T19:32:50.087Z,99474.59
2022-12-12T19:35:20.310Z,99477.31
2022-12-12T19:37:51.227Z,99482.27
2022-12-12T19:40:22.103Z,99486.18
2022-12-12T19:42:53.570Z,99489.77
2022-12-12T19:45:40.200Z,99490.27
2022-12-12T19:48:11.903Z,99489.42
2022-12-12T19:50:43.179Z,99495.23
2022-12-12T19:53:13.398Z,99494.91
2022-12-12T19:55:48.205Z,99497.63
2022-12-12T19:58:18.372Z,99494.06
2022-12-12T20:00:47.905Z,99494.75
2022-12-12T20:03:17.968Z,99497.30
2022-12-12T20:05:50.503Z,99504.48
2022-12-12T20:08:23.036Z,99509.42
2022-12-12T20:10:52.661Z,99506.02
2022-12-12T20:13:22.247Z,99509.23
2022-12-12T20:15:51.711Z,99508.21
2022-12-12T20:18:21.503Z,99508.20
2022-12-12T20:20:57.947Z,99506.85
2022-12-12T20:23:27.491Z,99505.14
2022-12-12T20:25:57.386Z,99503.98
2022-12-12T20:28:27.368Z,99506.20
2022-12-12T20:31:29.198Z,99504.69
2022-12-12T20:34:03.459Z,99511.02
2022-12-12T20:36:35.367Z,99510.00
2022-12-12T20:39:08.130Z,99513.92
2022-12-12T20:41:39.885Z,99512.06
2022-12-12T20:44:09.531Z,99514.29
2022-12-12T20:46:42.829Z,99517.53
2022-12-12T20:49:17.915Z,99520.95
2022-12-12T20:51:57.673Z,99517.20
2022-12-12T20:54:29.648Z,99515.16
2022-12-12T20:57:00.454Z,99512.96
2022-12-12T20:59:31.842Z,99512.45
2022-12-12T21:02:02.775Z,99516.54
2022-12-12T21:04:33.437Z,99512.30
2022-12-12T21:07:01.965Z,99514.15
2022-12-12T21:09:32.461Z,99517.22
2022-12-12T21:12:01.732Z,99519.27
2022-12-12T21:14:33.324Z,99523.02
2022-12-12T21:17:02.644Z,99528.84
2022-12-12T21:19:32.254Z,99534.64
2022-12-12T21:22:02.181Z,99527.33
2022-12-12T21:24:31.720Z,99530.38
2022-12-12T21:27:02.689Z,99529.69
2022-12-12T21:29:31.121Z,99525.10
2022-12-12T21:31:59.737Z,99527.33
2022-12-12T21:34:28.110Z,99530.73
2022-12-12T21:36:57.118Z,99536.89
2022-12-12T21:39:28.785Z,99539.95
2022-12-12T21:41:57.103Z,99542.69
2022-12-12T21:44:26.231Z,99548.50
2022-12-12T21:46:55.325Z,99553.95
2022-12-12T21:49:27.123Z,99550.73
2022-12-12T21:52:04.158Z,99544.61
2022-12-12T21:54:33.019Z,99544.27
2022-12-12T21:57:02.887Z,99550.91
2022-12-12T21:59:31.230Z,99550.92
2022-12-12T22:02:00.834Z,99552.79
2022-12-12T22:04:30.301Z,99557.73
2022-12-12T22:06:59.074Z,99556.69
2022-12-12T22:09:27.728Z,99560.77
2022-12-12T22:12:04.176Z,99561.95
2022-12-12T22:14:34.969Z,99562.48
2022-12-12T22:17:05.251Z,99563.01
2022-12-12T22:19:33.767Z,99564.90
2022-12-12T22:22:02.314Z,99565.92
2022-12-12T22:24:30.757Z,99567.96
2022-12-12T22:26:59.153Z,99571.55
2022-12-12T22:29:27.601Z,99569.52
2022-12-12T22:31:56.162Z,99567.14
2022-12-12T22:34:25.344Z,99565.95
2022-12-12T22:36:53.918Z,99568.67
2022-12-12T22:39:28.053Z,99571.77
2022-12-12T22:41:57.153Z,99573.83
2022-12-12T22:44:27.025Z,99571.98
2022-12-12T22:46:56.111Z,99571.83
2022-12-12T22:49:26.927Z,99568.42
2022-12-12T22:51:58.905Z,99572.18
2022-12-12T22:54:27.947Z,99577.46
2022-12-12T22:56:56.454Z,99575.42
2022-12-12T22:59:25.133Z,99574.76
2022-12-12T23:01:53.731Z,99576.30
2022-12-12T23:04:22.121Z,99576.48
2022-12-12T23:06:50.592Z,99578.70
2022-12-12T23:09:22.567Z,99580.08
2022-12-12T23:11:50.974Z,99575.14
2022-12-12T23:14:22.994Z,99576.71
2022-12-12T23:16:52.546Z,99575.54
2022-12-12T23:19:26.305Z,99575.36
2022-12-12T23:21:54.720Z,99578.09
2022-12-12T23:24:23.299Z,99579.95
2022-12-12T23:26:52.234Z,99581.31
2022-12-12T23:29:21.237Z,99586.44
2022-12-12T23:31:50.444Z,99590.52
2022-12-12T23:34:23.552Z,99588.31
2022-12-12T23:36:54.300Z,99598.18
2022-12-12T23:39:24.109Z,99596.33
2022-12-12T23:41:52.906Z,99603.83
2022-12-12T23:44:22.915Z,99609.77
2022-12-12T23:46:51.932Z,99612.68
2022-12-12T23:49:23.818Z,99613.88
2022-12-12T23:51:57.570Z,99618.80
2022-12-12T23:54:35.315Z,99619.00
2022-12-12T23:57:13.369Z,99617.48
2022-12-12T23:59:42.422Z,99620.88
